createdAt,value
2019-05-12T00:01:31.127Z,19.4
2019-05-12T00:11:29.429Z,17.9
2019-05-12T00:21:28.990Z,19.7
2019-05-12T00:31:29.169Z,21.5
2019-05-12T00:41:28.973Z,19.2
2019-05-12T00:51:28.762Z,17.1
2019-05-12T01:01:31.099Z,16.8
2019-05-12T01:11:29.314Z,16.2
2019-05-12T01:21:29.449Z,19.1
2019-05-12T01:31:29.225Z,17.1
2019-05-12T01:41:29.250Z,18.8
2019-05-12T01:51:29.125Z,15.3
2019-05-12T02:01:28.794Z,14.0
2019-05-12T02:11:29.438Z,17.6
2019-05-12T02:21:28.522Z,18.6
2019-05-12T02:31:30.001Z,17.8
2019-05-12T02:41:26.714Z,15.8
2019-05-12T02:51:25.950Z,18.2
2019-05-12T03:01:26.953Z,18.1
2019-05-12T03:11:27.941Z,15.8
2019-05-12T03:21:27.371Z,21.0
2019-05-12T03:31:37.779Z,17.5
2019-05-12T03:41:35.530Z,17.1
2019-05-12T03:51:27.484Z,18.9
2019-05-12T04:01:27.390Z,19.2
2019-05-12T04:11:27.143Z,20.0
2019-05-12T04:21:27.048Z,19.5
2019-05-12T04:31:26.790Z,22.1
2019-05-12T04:41:29.271Z,19.9
2019-05-12T04:51:26.977Z,17.2
2019-05-12T05:01:27.010Z,21.8
2019-05-12T05:11:27.181Z,18.9
2019-05-12T05:21:28.383Z,19.2
2019-05-12T05:31:27.053Z,25.8
2019-05-12T05:41:26.668Z,16.7
2019-05-12T05:51:27.949Z,20.2
2019-05-12T06:01:26.823Z,22.0
2019-05-12T06:11:29.308Z,20.6
2019-05-12T06:21:34.511Z,20.1
2019-05-12T06:31:32.802Z,20.7
2019-05-12T06:41:28.095Z,16.2
2019-05-12T06:51:27.901Z,14.3
2019-05-12T07:01:28.306Z,15.2
2019-05-12T07:11:40.526Z,13.8
2019-05-12T07:21:28.213Z,11.9
2019-05-12T07:31:25.826Z,12.8
2019-05-12T07:41:26.444Z,14.5
2019-05-12T07:51:36.199Z,10.9
2019-05-12T08:01:26.361Z,13.5
2019-05-12T08:11:34.538Z,12.7
2019-05-12T08:21:28.008Z,11.3
2019-05-12T08:31:38.582Z,11.1
2019-05-12T08:41:26.610Z,8.0
2019-05-12T08:51:26.592Z,9.4
2019-05-12T09:01:31.457Z,8.7
2019-05-12T09:11:26.910Z,13.0
2019-05-12T09:21:34.763Z,17.1
2019-05-12T09:31:30.318Z,14.5
2019-05-12T09:41:26.090Z,10.3
2019-05-12T09:51:26.382Z,8.5
2019-05-12T10:01:35.110Z,11.2
2019-05-12T10:11:27.467Z,8.1
2019-05-12T10:21:26.349Z,5.1
2019-05-12T10:31:35.397Z,8.0
2019-05-12T10:41:27.509Z,6.4
2019-05-12T10:51:26.817Z,6.2
2019-05-12T11:01:27.155Z,10.8
2019-05-12T11:11:41.941Z,11.2
2019-05-12T11:21:25.402Z,8.6
2019-05-12T11:31:34.116Z,10.1
2019-05-12T11:41:29.276Z,7.5
2019-05-12T11:51:30.907Z,9.9
2019-05-12T12:01:26.488Z,24.5
2019-05-12T12:11:28.860Z,45.6
2019-05-12T12:21:25.786Z,46.0
2019-05-12T12:31:34.636Z,49.4
2019-05-12T12:41:26.895Z,44.5
2019-05-12T12:51:27.540Z,42.4
2019-05-12T13:01:32.712Z,36.5
2019-05-12T13:11:35.032Z,33.7
2019-05-12T13:21:27.510Z,29.8
2019-05-12T13:31:27.984Z,22.8
2019-05-12T13:41:26.477Z,26.0
2019-05-12T13:51:27.589Z,22.3
2019-05-12T14:01:40.410Z,22.3
2019-05-12T14:11:25.281Z,20.6
2019-05-12T14:21:26.541Z,29.5
2019-05-12T14:31:43.984Z,29.2
2019-05-12T14:41:27.779Z,27.7
2019-05-12T14:51:28.412Z,26.9
2019-05-12T15:01:57.071Z,27.3
2019-05-12T15:11:27.653Z,28.0
2019-05-12T15:21:33.478Z,26.9
2019-05-12T15:31:27.732Z,32.8
2019-05-12T15:41:26.631Z,32.7
2019-05-12T15:51:27.607Z,36.7
2019-05-12T16:01:27.244Z,39.7
2019-05-12T16:11:27.098Z,47.2
2019-05-12T16:21:27.147Z,39.3
2019-05-12T16:31:26.655Z,43.0
2019-05-12T16:41:30.445Z,47.1
2019-05-12T16:51:27.146Z,42.7
2019-05-12T17:01:30.051Z,39.3
2019-05-12T17:11:37.138Z,45.1
2019-05-12T17:21:34.250Z,38.8
2019-05-12T17:31:27.093Z,34.2
2019-05-12T17:41:31.320Z,34.2
2019-05-12T17:51:31.697Z,35.6
2019-05-12T18:01:35.382Z,29.8
2019-05-12T18:11:27.577Z,33.6
2019-05-12T18:21:34.018Z,35.4
2019-05-12T18:31:27.282Z,20.1
2019-05-12T18:41:27.962Z,22.3
2019-05-12T18:51:28.567Z,15.8
2019-05-12T19:01:26.337Z,15.1
2019-05-12T19:11:43.414Z,20.4
2019-05-12T19:21:27.007Z,23.1
2019-05-12T19:31:26.847Z,27.0
2019-05-12T19:41:36.302Z,17.0
2019-05-12T19:51:29.070Z,14.0
2019-05-12T20:01:34.457Z,15.6
2019-05-12T20:11:31.943Z,13.0
2019-05-12T20:21:29.101Z,15.2
2019-05-12T20:31:27.849Z,14.3
2019-05-12T20:41:27.728Z,12.4
2019-05-12T20:51:26.168Z,14.9
2019-05-12T21:01:31.055Z,10.9
2019-05-12T21:11:26.566Z,13.2
2019-05-12T21:21:38.622Z,10.9
2019-05-12T21:32:19.001Z,10.5
2019-05-12T21:41:26.766Z,16.9
2019-05-12T21:51:28.019Z,14.0
2019-05-12T22:01:27.692Z,19.6
2019-05-12T22:11:27.653Z,22.3
2019-05-12T22:21:27.885Z,24.3
2019-05-12T22:31:28.596Z,20.4
2019-05-12T22:41:36.640Z,20.1
2019-05-12T22:51:27.655Z,19.4
2019-05-12T23:01:32.649Z,18.1
2019-05-12T23:11:37.637Z,13.3
2019-05-12T23:21:26.534Z,13.2
2019-05-12T23:31:30.798Z,9.9
2019-05-12T23:41:28.120Z,10.9
2019-05-12T23:51:26.853Z,13.8
